Time;durP1;ratioP1;P1;durP2;ratioP2;P2;SDS_P1;SDS_P2;PMS_P1;PMS_P2;Temp;Humidity;BMP_temperature;BMP_pressure;BME280_temperature;BME280_humidity;BME280_pressure;Samples;Min_cycle;Max_cycle;Signal;HPM_P1;HPM_P2
2023/06/25 00:02:24;;;;;;;10.85;8.27;;;;;;;18.80;69.21;100624.16;5132558;27;20203;-64
2023/06/25 00:04:52;;;;;;;10.85;8.65;;;;;;;18.76;69.42;100622.56;5133318;27;20203;-63
2023/06/25 00:07:20;;;;;;;12.32;8.20;;;;;;;18.76;69.36;100624.31;5134547;27;20241;-65
2023/06/25 00:09:55;;;;;;;9.57;8.55;;;;;;;18.74;69.67;100629.63;5137486;27;20213;-65
2023/06/25 00:12:24;;;;;;;10.25;8.38;;;;;;;18.68;69.18;100621.97;5137148;27;20194;-64
2023/06/25 00:14:52;;;;;;;9.60;8.55;;;;;;;18.68;69.63;100621.97;5132362;27;20206;-64
2023/06/25 00:17:21;;;;;;;9.80;8.50;;;;;;;18.65;69.64;100624.66;5137786;27;20217;-65
2023/06/25 00:19:49;;;;;;;9.38;7.78;;;;;;;18.64;69.60;100625.59;5135297;27;20226;-64
2023/06/25 00:22:17;;;;;;;10.20;8.07;;;;;;;18.61;69.76;100625.69;5136752;27;20633;-65
2023/06/25 00:24:45;;;;;;;11.18;8.88;;;;;;;18.58;70.00;100623.19;5142758;27;20190;-64
2023/06/25 00:27:13;;;;;;;11.13;8.75;;;;;;;18.53;69.94;100614.69;5135805;27;20628;-64
2023/06/25 00:29:43;;;;;;;9.70;8.40;;;;;;;18.50;70.07;100620.00;5124414;27;20658;-64
2023/06/25 00:32:12;;;;;;;11.63;8.93;;;;;;;18.48;69.87;100616.56;5137226;27;20303;-64
2023/06/25 00:34:41;;;;;;;11.07;8.32;;;;;;;18.39;69.87;100611.69;5133767;27;20251;-64
2023/06/25 00:37:16;;;;;;;11.02;8.55;;;;;;;18.41;70.07;100615.09;5137052;27;20203;-64
2023/06/25 00:39:45;;;;;;;10.77;8.68;;;;;;;18.39;70.07;100612.53;5136894;27;20252;-63
2023/06/25 00:42:16;;;;;;;11.43;9.52;;;;;;;18.39;69.88;100614.31;5133692;27;20611;-63
2023/06/25 00:44:45;;;;;;;9.68;8.57;;;;;;;18.37;70.03;100614.34;5137152;27;20203;-63
2023/06/25 00:47:16;;;;;;;10.57;9.13;;;;;;;18.36;69.99;100612.66;5139309;27;20198;-63
2023/06/25 00:49:45;;;;;;;10.88;9.02;;;;;;;18.32;70.14;100609.28;5138209;27;20311;-64
2023/06/25 00:52:15;;;;;;;11.18;8.93;;;;;;;18.27;69.80;100602.53;5136902;27;20222;-63
2023/06/25 00:54:44;;;;;;;14.75;8.48;;;;;;;18.20;69.70;100601.91;5136524;27;20199;-65
2023/06/25 00:57:15;;;;;;;10.55;9.10;;;;;;;18.13;70.05;100605.59;5135514;27;20725;-63
2023/06/25 00:59:48;;;;;;;10.48;7.82;;;;;;;18.03;70.14;100612.03;5141382;27;20203;-64
2023/06/25 01:02:22;;;;;;;11.77;8.65;;;;;;;17.98;70.28;100609.59;5134018;27;20195;-67
2023/06/25 01:04:58;;;;;;;10.30;7.43;;;;;;;17.95;70.51;100604.47;5132574;27;20207;-63
2023/06/25 01:07:27;;;;;;;11.15;7.90;;;;;;;17.92;70.09;100607.16;5132867;27;20198;-65
2023/06/25 01:09:57;;;;;;;10.90;8.00;;;;;;;17.90;69.95;100610.75;5131208;27;20327;-64
2023/06/25 01:12:25;;;;;;;11.52;8.70;;;;;;;17.89;69.75;100607.25;5133004;27;20208;-65
2023/06/25 01:14:54;;;;;;;8.13;7.28;;;;;;;17.91;69.09;100608.09;5133041;27;20617;-64
2023/06/25 01:17:22;;;;;;;8.73;6.82;;;;;;;17.92;68.56;100606.31;5132811;27;20203;-64
2023/06/25 01:19:51;;;;;;;8.90;6.75;;;;;;;17.90;68.30;100598.56;5133037;27;20670;-64
2023/06/25 01:22:24;;;;;;;9.10;6.80;;;;;;;17.93;68.17;100600.19;5135992;27;20236;-64
2023/06/25 01:24:52;;;;;;;8.63;6.82;;;;;;;17.97;67.13;100604.41;5136658;27;20290;-64
2023/06/25 01:27:21;;;;;;;9.38;5.72;;;;;;;18.00;67.12;100605.16;5128129;27;20569;-64
2023/06/25 01:29:49;;;;;;;8.25;5.85;;;;;;;18.02;66.41;100603.34;5134468;27;20232;-64
2023/06/25 01:32:18;;;;;;;8.98;6.18;;;;;;;18.02;66.29;100599.91;5134179;27;20222;-64
2023/06/25 01:34:46;;;;;;;5.95;5.25;;;;;;;18.01;66.21;100595.59;5129529;27;20223;-64
2023/06/25 01:37:17;;;;;;;9.23;5.82;;;;;;;18.02;66.39;100592.94;5131622;27;20275;-64
2023/06/25 01:39:49;;;;;;;7.68;5.60;;;;;;;18.03;66.04;100592.00;5134536;27;20199;-63
2023/06/25 01:42:17;;;;;;;9.20;5.72;;;;;;;18.06;65.80;100593.69;5130887;27;20213;-63
2023/06/25 01:44:45;;;;;;;8.23;5.82;;;;;;;18.11;65.56;100596.97;5135996;27;20203;-64
2023/06/25 01:47:13;;;;;;;6.05;5.30;;;;;;;18.13;65.35;100589.13;5132102;27;20277;-64
2023/06/25 01:49:41;;;;;;;6.65;5.32;;;;;;;18.12;65.24;100587.41;5128570;27;20555;-64
2023/06/25 01:52:09;;;;;;;5.93;5.18;;;;;;;18.12;65.30;100596.09;5133910;27;20211;-63
2023/06/25 01:54:37;;;;;;;6.82;5.38;;;;;;;18.08;65.36;100591.88;5133184;27;20206;-64
2023/06/25 01:57:07;;;;;;;8.15;6.65;;;;;;;18.04;65.48;100591.13;5130366;27;20223;-63
2023/06/25 01:59:35;;;;;;;5.72;5.03;;;;;;;18.02;65.44;100592.09;5134697;27;20199;-63
2023/06/25 02:02:03;;;;;;;5.88;5.28;;;;;;;17.96;65.33;100597.50;5131943;27;20561;-64
2023/06/25 02:04:32;;;;;;;7.47;5.82;;;;;;;17.95;65.36;100591.44;5130260;27;20631;-64
2023/06/25 02:07:00;;;;;;;6.97;5.97;;;;;;;17.95;65.45;100585.38;5133823;27;20608;-63
2023/06/25 02:09:28;;;;;;;5.97;5.00;;;;;;;17.90;65.61;100584.69;5131266;27;20264;-65
2023/06/25 02:11:56;;;;;;;5.93;5.28;;;;;;;17.85;65.65;100590.88;5133011;27;20223;-64
2023/06/25 02:14:25;;;;;;;5.80;5.20;;;;;;;17.85;65.70;100596.09;5132876;27;20195;-64
2023/06/25 02:16:53;;;;;;;6.47;5.75;;;;;;;17.81;65.95;100586.66;5133883;27;20199;-64
2023/06/25 02:19:21;;;;;;;6.07;5.30;;;;;;;17.82;65.80;100596.22;5129481;27;20618;-63
2023/06/25 02:21:49;;;;;;;9.00;5.35;;;;;;;17.82;65.56;100591.00;5130802;27;20586;-64
2023/06/25 02:24:17;;;;;;;8.07;5.28;;;;;;;17.80;65.59;100590.19;5133077;27;20199;-64
2023/06/25 02:26:45;;;;;;;6.80;5.30;;;;;;;17.82;65.50;100584.91;5131564;27;20205;-63
2023/06/25 02:29:13;;;;;;;7.13;5.18;;;;;;;17.83;65.23;100586.63;5132413;27;20215;-64
2023/06/25 02:31:42;;;;;;;7.22;5.47;;;;;;;17.84;64.98;100585.72;5132777;27;20238;-63
2023/06/25 02:34:11;;;;;;;5.78;4.95;;;;;;;17.83;64.84;100584.88;5133208;27;20203;-63
2023/06/25 02:36:39;;;;;;;6.00;5.28;;;;;;;17.78;64.62;100581.53;5135639;27;20230;-65
2023/06/25 02:39:07;;;;;;;6.25;5.43;;;;;;;17.78;65.20;100588.50;5132066;27;20607;-63
2023/06/25 02:41:35;;;;;;;9.45;5.18;;;;;;;17.77;64.71;100581.59;5126770;27;20563;-63
2023/06/25 02:44:03;;;;;;;9.02;5.25;;;;;;;17.73;64.84;100586.03;5133067;27;20666;-64
2023/06/25 02:46:31;;;;;;;6.28;5.22;;;;;;;17.70;64.91;100587.88;5132476;27;20569;-64
2023/06/25 02:49:00;;;;;;;5.90;5.13;;;;;;;17.69;65.22;100589.66;5132057;27;20302;-64
2023/06/25 02:51:28;;;;;;;8.38;5.28;;;;;;;17.69;64.96;100588.78;5128306;27;20706;-63
2023/06/25 02:53:56;;;;;;;5.80;5.18;;;;;;;17.65;65.13;100587.19;5132911;27;20226;-64
2023/06/25 02:56:24;;;;;;;6.55;5.38;;;;;;;17.66;64.92;100584.53;5131520;27;20658;-63
2023/06/25 02:58:52;;;;;;;7.30;6.03;;;;;;;17.67;64.90;100581.00;5122103;27;20195;-64
2023/06/25 03:01:20;;;;;;;6.28;5.13;;;;;;;17.71;64.73;100582.63;5131551;27;20286;-62
2023/06/25 03:03:48;;;;;;;8.13;5.35;;;;;;;17.73;64.66;100578.22;5131459;27;20663;-66
2023/06/25 03:06:17;;;;;;;6.03;5.05;;;;;;;17.76;64.67;100585.97;5135196;27;20226;-64
2023/06/25 03:08:45;;;;;;;6.47;5.40;;;;;;;17.75;64.72;100588.59;5132030;27;20207;-63
2023/06/25 03:11:14;;;;;;;6.05;5.45;;;;;;;17.77;64.73;100587.66;5130595;27;20603;-63
2023/06/25 03:13:42;;;;;;;7.63;5.35;;;;;;;17.81;64.53;100581.44;5128089;27;20203;-63
2023/06/25 03:16:10;;;;;;;8.90;5.93;;;;;;;17.84;64.51;100583.09;5131975;27;20203;-65
2023/06/25 03:18:38;;;;;;;5.70;5.00;;;;;;;17.85;64.41;100590.03;5133149;27;20199;-66
2023/06/25 03:21:06;;;;;;;7.43;5.70;;;;;;;17.83;64.61;100587.47;5131009;27;20548;-64
2023/06/25 03:23:35;;;;;;;5.85;5.32;;;;;;;17.84;64.78;100594.38;5131345;27;20626;-63
2023/06/25 03:26:03;;;;;;;6.45;5.22;;;;;;;17.82;64.86;100595.31;5131171;27;20246;-64
2023/06/25 03:28:31;;;;;;;7.82;5.32;;;;;;;17.78;65.57;100591.97;5132703;27;20732;-64
2023/06/25 03:30:59;;;;;;;6.78;6.03;;;;;;;17.75;66.26;100597.31;5131540;27;20260;-65
2023/06/25 03:33:27;;;;;;;7.25;5.75;;;;;;;17.79;66.05;100604.13;5095208;28;20214;-64
2023/06/25 03:35:55;;;;;;;5.38;4.68;;;;;;;17.84;66.24;100597.00;5090941;28;20207;-63
2023/06/25 03:38:23;;;;;;;6.85;6.00;;;;;;;17.90;66.14;100598.56;5091537;28;20209;-64
2023/06/25 03:40:52;;;;;;;9.80;6.63;;;;;;;17.96;66.19;100597.50;5090238;28;20236;-64
2023/06/25 03:43:20;;;;;;;7.75;5.95;;;;;;;17.96;66.17;100593.13;5084931;28;20215;-63
2023/06/25 03:45:48;;;;;;;7.88;6.40;;;;;;;17.95;66.58;100593.19;5090849;28;20585;-65
2023/06/25 03:48:16;;;;;;;7.25;6.10;;;;;;;17.94;66.93;100587.13;5087286;28;20279;-65
2023/06/25 03:50:44;;;;;;;7.57;6.43;;;;;;;17.93;67.32;100577.59;5089809;28;20213;-65
2023/06/25 03:53:12;;;;;;;9.07;6.63;;;;;;;17.92;67.47;100588.06;5090154;28;20621;-64
2023/06/25 03:55:40;;;;;;;8.70;6.78;;;;;;;17.89;67.73;100586.41;5089832;28;20260;-64
2023/06/25 03:58:09;;;;;;;10.07;7.30;;;;;;;17.92;68.05;100590.69;5089857;28;20231;-64
2023/06/25 04:00:37;;;;;;;7.78;6.82;;;;;;;17.91;67.85;100591.59;5083913;28;20201;-65
2023/06/25 04:03:05;;;;;;;7.72;6.35;;;;;;;17.92;68.19;100591.53;5088003;28;20633;-65
2023/06/25 04:05:33;;;;;;;9.32;7.35;;;;;;;17.96;68.13;100594.88;5085735;28;20192;-65
2023/06/25 04:08:01;;;;;;;9.60;7.20;;;;;;;17.99;68.25;100594.78;5090517;28;20207;-64
2023/06/25 04:10:29;;;;;;;10.05;7.35;;;;;;;17.98;68.26;100595.69;5097264;28;20295;-65
2023/06/25 04:12:57;;;;;;;8.40;6.60;;;;;;;17.97;68.32;100593.97;5089625;28;20655;-64
2023/06/25 04:15:27;;;;;;;9.02;7.22;;;;;;;17.98;68.67;100603.53;5090045;28;20200;-68
2023/06/25 04:17:55;;;;;;;8.18;6.85;;;;;;;18.03;68.80;100594.63;5092617;28;20201;-64
2023/06/25 04:20:26;;;;;;;9.13;7.03;;;;;;;18.12;68.36;100598.69;5090930;28;20591;-64
2023/06/25 04:22:54;;;;;;;8.65;6.90;;;;;;;18.22;68.18;100600.06;5086917;28;20693;-63
2023/06/25 04:25:22;;;;;;;7.68;6.80;;;;;;;18.25;67.87;100597.34;5085293;28;20209;-63
2023/06/25 04:27:50;;;;;;;8.32;6.85;;;;;;;18.26;67.75;100606.91;5089077;28;20532;-66
2023/06/25 04:30:18;;;;;;;10.35;7.32;;;;;;;18.25;67.81;100604.34;5090205;28;20567;-66
2023/06/25 04:32:49;;;;;;;9.15;7.55;;;;;;;18.21;67.63;100602.75;5116044;27;20223;-66
2023/06/25 04:35:17;;;;;;;7.72;6.82;;;;;;;18.22;67.77;100602.69;5134301;27;20569;-64
2023/06/25 04:37:45;;;;;;;8.70;7.45;;;;;;;18.24;67.75;100593.06;5135070;27;20671;-65
2023/06/25 04:40:14;;;;;;;7.97;6.82;;;;;;;18.25;67.69;100594.75;5133871;27;20199;-65
2023/06/25 04:42:42;;;;;;;9.43;7.50;;;;;;;18.25;67.77;100606.94;5131805;27;20199;-64
2023/06/25 04:45:10;;;;;;;9.07;7.60;;;;;;;18.24;67.97;100603.50;5134091;27;20218;-65
2023/06/25 04:47:38;;;;;;;10.13;6.70;;;;;;;18.28;67.74;100601.63;5133890;27;20680;-65
2023/06/25 04:50:08;;;;;;;7.22;6.53;;;;;;;18.29;67.73;100595.50;5134733;27;20207;-65
2023/06/25 04:52:36;;;;;;;12.57;6.85;;;;;;;18.37;67.82;100597.84;5133835;27;20210;-64
2023/06/25 04:55:04;;;;;;;8.07;7.32;;;;;;;18.45;67.93;100595.84;5130201;27;20287;-65
2023/06/25 04:57:32;;;;;;;9.93;8.07;;;;;;;18.53;67.22;100594.66;5134777;27;20784;-63
2023/06/25 05:00:00;;;;;;;7.55;6.63;;;;;;;18.65;67.15;100595.97;5134160;27;20199;-64
2023/06/25 05:02:28;;;;;;;9.77;7.45;;;;;;;18.73;66.85;100591.34;5134243;27;20199;-63
2023/06/25 05:04:56;;;;;;;9.80;7.88;;;;;;;18.86;66.53;100594.38;5134196;27;20249;-64
2023/06/25 05:07:26;;;;;;;8.07;7.25;;;;;;;18.96;66.12;100593.13;5133715;27;20573;-64
2023/06/25 05:09:54;;;;;;;8.88;7.75;;;;;;;19.07;65.78;100597.91;5125526;27;20532;-65
2023/06/25 05:12:22;;;;;;;10.02;7.00;;;;;;;19.22;65.88;100586.91;5127867;27;20207;-65
2023/06/25 05:14:50;;;;;;;8.10;7.18;;;;;;;19.44;65.36;100591.25;5133202;27;20233;-66
2023/06/25 05:17:17;;;;;;;9.32;7.53;;;;;;;19.70;64.83;100591.13;5133516;27;20207;-66
2023/06/25 05:19:45;;;;;;;9.82;7.43;;;;;;;19.91;64.18;100578.06;5133916;27;20199;-64
2023/06/25 05:22:13;;;;;;;9.48;7.40;;;;;;;20.16;63.03;100576.13;5132201;27;20206;-64
2023/06/25 05:24:43;;;;;;;8.68;7.13;;;;;;;20.40;62.59;100581.19;5133752;27;20203;-64
2023/06/25 05:27:11;;;;;;;9.00;7.43;;;;;;;20.68;61.72;100580.88;5130277;27;20251;-65
2023/06/25 05:29:39;;;;;;;12.00;7.18;;;;;;;20.88;60.62;100588.69;5131555;27;22928;-64
2023/06/25 05:32:08;;;;;;;8.85;6.70;;;;;;;21.10;60.07;100592.91;5133149;27;20231;-64
2023/06/25 05:34:36;;;;;;;10.68;7.38;;;;;;;21.31;58.93;100591.06;5132405;27;20226;-65
2023/06/25 05:37:04;;;;;;;9.20;7.38;;;;;;;21.45;58.46;100596.53;5132565;27;20284;-64
2023/06/25 05:39:32;;;;;;;7.88;7.07;;;;;;;21.56;58.14;100588.16;5131290;27;20202;-65
2023/06/25 05:42:01;;;;;;;7.82;7.03;;;;;;;21.70;57.76;100594.44;5126539;27;20681;-65
2023/06/25 05:44:29;;;;;;;8.10;7.07;;;;;;;21.86;57.44;100591.91;5132503;27;20203;-65
2023/06/25 05:46:57;;;;;;;10.38;7.03;;;;;;;22.02;56.77;100602.50;5137559;27;21190;-64
2023/06/25 05:49:25;;;;;;;7.78;6.97;;;;;;;22.12;56.24;100601.09;5133875;27;20283;-65
2023/06/25 05:51:53;;;;;;;9.20;7.10;;;;;;;22.29;55.95;100587.16;5132096;27;20652;-65
2023/06/25 05:54:21;;;;;;;7.57;6.55;;;;;;;22.49;55.62;100587.88;5128944;27;20231;-66
2023/06/25 05:56:49;;;;;;;8.15;7.15;;;;;;;22.69;54.83;100576.34;5139856;27;20206;-64
2023/06/25 05:59:18;;;;;;;6.97;6.22;;;;;;;22.88;54.33;100580.50;5126161;27;20206;-64
2023/06/25 06:01:46;;;;;;;8.75;6.72;;;;;;;23.10;54.20;100579.38;5133477;27;20558;-63
2023/06/25 06:04:14;;;;;;;7.70;6.47;;;;;;;23.42;53.27;100581.97;5133065;27;20546;-64
2023/06/25 06:06:44;;;;;;;8.82;7.55;;;;;;;23.68;52.23;100573.50;5132296;27;20203;-65
2023/06/25 06:09:12;;;;;;;10.65;7.43;;;;;;;23.72;51.07;100568.91;5134224;27;20203;-65
2023/06/25 06:11:40;;;;;;;10.82;7.65;;;;;;;23.76;51.14;100570.41;5132555;27;20215;-64
2023/06/25 06:14:08;;;;;;;9.50;7.22;;;;;;;23.74;50.84;100575.75;5129351;27;20403;-64
2023/06/25 06:16:37;;;;;;;10.48;7.25;;;;;;;23.84;50.87;100573.44;5132905;27;20210;-63
2023/06/25 06:19:05;;;;;;;7.03;6.05;;;;;;;24.11;50.62;100577.06;5127530;27;20279;-65
2023/06/25 06:21:33;;;;;;;7.40;6.32;;;;;;;24.40;49.56;100574.50;5132185;27;20195;-64
2023/06/25 06:24:01;;;;;;;7.32;6.20;;;;;;;24.52;48.72;100557.97;5127350;27;20207;-64
2023/06/25 06:26:29;;;;;;;6.80;6.05;;;;;;;24.78;48.16;100576.56;5130707;27;20611;-64
2023/06/25 06:29:03;;;;;;;6.15;5.22;;;;;;;24.95;46.84;100576.38;5128456;27;20289;-63
2023/06/25 06:31:32;;;;;;;7.65;5.68;;;;;;;25.15;46.12;100572.53;5122425;27;20235;-65
2023/06/25 06:34:01;;;;;;;6.03;5.43;;;;;;;25.48;45.77;100568.63;5120087;27;21893;-64
2023/06/25 06:36:29;;;;;;;7.55;6.07;;;;;;;25.88;44.53;100582.69;5127789;27;20251;-65
2023/06/25 06:38:57;;;;;;;6.53;5.00;;;;;;;26.18;43.42;100584.22;5132739;27;20594;-66
2023/06/25 06:41:25;;;;;;;7.10;5.20;;;;;;;26.46;42.71;100583.22;5132805;27;20213;-64
2023/06/25 06:43:53;;;;;;;7.10;4.70;;;;;;;26.95;41.72;100579.75;5131424;27;20203;-65
2023/06/25 06:46:21;;;;;;;6.57;5.20;;;;;;;27.31;40.51;100578.91;5131934;27;20234;-64
2023/06/25 06:48:49;;;;;;;5.70;5.03;;;;;;;27.77;39.68;100570.25;5132597;27;20303;-63
2023/06/25 06:51:18;;;;;;;7.63;4.65;;;;;;;28.23;37.91;100569.38;5130950;27;20211;-64
2023/06/25 06:53:46;;;;;;;5.75;4.90;;;;;;;28.61;36.98;100571.75;5132750;27;20242;-64
2023/06/25 06:56:14;;;;;;;8.25;5.40;;;;;;;28.79;36.44;100574.72;5130687;27;20231;-64
2023/06/25 06:58:42;;;;;;;6.15;4.68;;;;;;;28.95;35.79;100568.22;5125562;27;20253;-63
2023/06/25 07:01:10;;;;;;;5.22;4.72;;;;;;;29.18;35.25;100577.84;5127100;27;20613;-64
2023/06/25 07:03:38;;;;;;;7.85;5.25;;;;;;;29.51;34.64;100576.91;5131473;27;20199;-64
2023/06/25 07:06:06;;;;;;;7.28;5.50;;;;;;;29.83;34.84;100573.41;5131867;27;20203;-64
2023/06/25 07:08:35;;;;;;;11.32;6.15;;;;;;;30.08;34.46;100574.81;5131414;27;20255;-64
2023/06/25 07:11:03;;;;;;;6.95;5.40;;;;;;;30.62;34.48;100571.06;5131657;27;20230;-64
2023/06/25 07:13:32;;;;;;;7.32;4.70;;;;;;;31.10;33.35;100570.41;5127596;27;20207;-64
2023/06/25 07:16:00;;;;;;;5.95;4.50;;;;;;;31.90;31.66;100557.84;5133994;27;20779;-63
2023/06/25 07:18:28;;;;;;;5.43;4.22;;;;;;;32.86;28.86;100561.16;5129877;27;20255;-64
2023/06/25 07:20:56;;;;;;;7.03;5.20;;;;;;;33.71;27.55;100556.38;5132093;27;20252;-64
2023/06/25 07:23:24;;;;;;;6.22;4.63;;;;;;;34.49;26.59;100556.38;5131975;27;20687;-64
2023/06/25 07:25:53;;;;;;;5.13;3.97;;;;;;;35.03;25.37;100549.75;5132358;27;20621;-64
2023/06/25 07:28:21;;;;;;;4.20;3.80;;;;;;;34.88;25.22;100553.22;5130263;27;20199;-65
2023/06/25 07:30:49;;;;;;;5.35;4.68;;;;;;;34.86;25.38;100554.19;5126363;27;20203;-66
2023/06/25 07:33:17;;;;;;;5.22;4.72;;;;;;;35.60;24.94;100543.63;5124608;27;20254;-64
2023/06/25 07:35:45;;;;;;;4.47;3.97;;;;;;;36.65;23.82;100546.28;5128206;27;20199;-63
2023/06/25 07:38:13;;;;;;;6.25;4.40;;;;;;;37.11;22.58;100543.69;5130336;27;20199;-65
2023/06/25 07:40:41;;;;;;;4.32;3.97;;;;;;;37.17;22.00;100545.66;5130848;27;20658;-63
2023/06/25 07:43:11;;;;;;;4.57;3.63;;;;;;;36.68;21.29;100540.56;5130930;27;20203;-66
2023/06/25 07:45:39;;;;;;;3.65;3.33;;;;;;;35.68;22.94;100538.28;5130781;27;20202;-66
2023/06/25 07:48:08;;;;;;;4.65;3.17;;;;;;;34.38;24.68;100538.75;5127526;27;20198;-66
2023/06/25 07:50:36;;;;;;;4.90;4.10;;;;;;;32.93;25.66;100538.22;5123493;27;20211;-62
2023/06/25 07:53:04;;;;;;;7.30;4.40;;;;;;;31.32;28.58;100544.53;5127390;27;20222;-62
2023/06/25 07:55:38;;;;;;;5.88;4.60;;;;;;;30.17;30.20;100544.00;5131739;28;20607;-63
2023/06/25 07:58:24;;;;;;;4.90;4.18;;;;;;;29.12;32.40;100538.53;5130967;27;20223;-61
2023/06/25 08:00:52;;;;;;;5.15;4.55;;;;;;;28.47;33.93;100534.03;5131810;28;20247;-61
2023/06/25 08:03:21;;;;;;;5.22;4.53;;;;;;;28.05;35.04;100533.72;5131054;27;20293;-61
2023/06/25 08:05:50;;;;;;;4.85;4.13;;;;;;;27.72;35.53;100532.63;5131545;28;20291;-63
2023/06/25 08:08:18;;;;;;;4.65;4.25;;;;;;;27.53;36.28;100535.84;5129622;27;20714;-62
2023/06/25 08:10:51;;;;;;;6.90;4.95;;;;;;;27.30;37.10;100532.25;5133509;27;20287;-64
2023/06/25 08:13:20;;;;;;;6.38;4.40;;;;;;;27.10;37.40;100530.19;5132275;27;20218;-63
2023/06/25 08:15:49;;;;;;;5.15;4.65;;;;;;;26.90;38.53;100531.63;5135649;27;20607;-63
2023/06/25 08:18:17;;;;;;;8.25;5.25;;;;;;;26.64;39.38;100541.44;5133564;27;20207;-62
2023/06/25 08:20:46;;;;;;;12.68;5.55;;;;;;;26.54;39.73;100529.81;5135505;27;20290;-65
2023/06/25 08:23:14;;;;;;;9.57;6.03;;;;;;;26.52;39.84;100540.50;5135711;27;20286;-60
2023/06/25 08:25:42;;;;;;;6.40;5.00;;;;;;;26.50;40.08;100542.41;5142458;27;20203;-61
2023/06/25 08:28:10;;;;;;;5.97;4.28;;;;;;;26.52;39.78;100535.22;5132711;27;20621;-63
2023/06/25 08:30:38;;;;;;;7.25;4.93;;;;;;;26.52;39.81;100542.31;5130590;27;20230;-62
2023/06/25 08:33:07;;;;;;;6.43;5.18;;;;;;;26.45;40.02;100544.50;5128011;27;20230;-61
2023/06/25 08:35:35;;;;;;;4.82;4.43;;;;;;;26.37;39.56;100539.75;5131518;27;20199;-62
2023/06/25 08:38:04;;;;;;;5.25;4.78;;;;;;;26.33;39.93;100540.91;5131027;27;20207;-60
2023/06/25 08:40:32;;;;;;;8.27;4.70;;;;;;;26.39;40.18;100535.19;5134600;27;20693;-61
2023/06/25 08:43:00;;;;;;;4.93;4.47;;;;;;;26.50;40.12;100530.03;5132236;27;20238;-62
2023/06/25 08:45:28;;;;;;;6.43;4.47;;;;;;;26.63;39.39;100531.81;5130687;27;20203;-63
2023/06/25 08:48:00;;;;;;;4.38;3.83;;;;;;;26.64;39.08;100517.63;5127875;27;20733;-64
2023/06/25 08:50:31;;;;;;;8.77;4.82;;;;;;;26.67;38.55;100517.44;5126605;27;20195;-62
2023/06/25 08:52:59;;;;;;;4.72;4.22;;;;;;;26.62;38.97;100514.25;5134575;27;20215;-61
2023/06/25 08:55:28;;;;;;;6.30;4.75;;;;;;;26.63;39.09;100516.81;5141572;27;20203;-60
2023/06/25 08:57:56;;;;;;;4.40;4.00;;;;;;;26.58;38.64;100523.34;5131351;27;20207;-61
2023/06/25 09:00:24;;;;;;;3.70;3.40;;;;;;;26.54;38.04;100524.53;5131513;27;20203;-60
2023/06/25 09:02:52;;;;;;;4.45;4.05;;;;;;;26.56;37.86;100523.47;5130920;27;20264;-63
2023/06/25 09:05:25;;;;;;;6.10;4.53;;;;;;;26.61;37.73;100517.84;5125503;27;20200;-63
2023/06/25 09:07:54;;;;;;;5.75;4.30;;;;;;;26.63;38.02;100521.25;5126542;27;20596;-62
2023/06/25 09:10:23;;;;;;;4.68;4.20;;;;;;;26.70;37.88;100519.84;5133473;27;20298;-62
2023/06/25 09:12:51;;;;;;;6.82;4.38;;;;;;;26.78;37.48;100520.16;5127043;27;20287;-62
2023/06/25 09:15:21;;;;;;;4.95;4.05;;;;;;;26.72;37.39;100525.88;5124147;27;20215;-61
2023/06/25 09:17:49;;;;;;;4.13;3.72;;;;;;;26.65;36.70;100521.97;5133791;27;20202;-62
2023/06/25 09:20:17;;;;;;;5.10;4.50;;;;;;;26.46;36.89;100536.47;5132680;27;20206;-65
2023/06/25 09:22:55;;;;;;;4.68;3.45;;;;;;;26.35;36.82;100532.88;5127023;27;20332;-62
2023/06/25 09:25:29;;;;;;;4.47;4.07;;;;;;;26.33;37.52;100533.00;5136708;27;20256;-64
2023/06/25 09:27:58;;;;;;;5.15;4.28;;;;;;;26.37;37.17;100520.41;5132525;27;20638;-63
2023/06/25 09:30:26;;;;;;;4.32;3.92;;;;;;;26.39;37.41;100521.97;5134472;27;20206;-62
2023/06/25 09:32:55;;;;;;;4.32;3.90;;;;;;;26.42;37.68;100508.56;5133927;27;20772;-62
2023/06/25 09:35:28;;;;;;;4.82;4.20;;;;;;;26.41;38.11;100511.31;5134423;27;20244;-62
2023/06/25 09:37:58;;;;;;;5.25;4.70;;;;;;;26.32;38.16;100511.94;5125835;27;20210;-63
2023/06/25 09:40:26;;;;;;;8.00;4.43;;;;;;;26.20;39.08;100511.00;5127655;27;20211;-62
2023/06/25 09:42:55;;;;;;;5.22;4.68;;;;;;;26.32;38.96;100512.78;5128709;27;20195;-63
2023/06/25 09:45:24;;;;;;;7.60;4.53;;;;;;;26.50;38.51;100508.03;5134340;27;20723;-63
2023/06/25 09:47:54;;;;;;;4.43;4.03;;;;;;;26.68;38.19;100509.38;5134164;27;20576;-63
2023/06/25 09:50:25;;;;;;;6.25;4.68;;;;;;;26.78;37.82;100499.00;5134171;27;20195;-62
2023/06/25 09:52:55;;;;;;;5.82;4.30;;;;;;;26.90;37.50;100500.75;5138689;27;20329;-63
2023/06/25 09:55:25;;;;;;;4.72;4.10;;;;;;;26.93;36.97;100497.88;5130218;27;20610;-61
2023/06/25 09:57:55;;;;;;;5.00;4.50;;;;;;;26.74;36.70;100489.59;5129983;27;20210;-62
2023/06/25 10:00:24;;;;;;;5.43;4.07;;;;;;;26.67;37.11;100491.84;5129997;27;20725;-61
2023/06/25 10:02:53;;;;;;;6.22;4.22;;;;;;;26.58;37.06;100481.91;5131543;27;20226;-62
2023/06/25 10:05:21;;;;;;;5.00;3.83;;;;;;;26.50;37.68;100487.72;5133121;27;20205;-64
2023/06/25 10:07:49;;;;;;;5.03;4.53;;;;;;;26.93;37.23;100482.00;5132461;27;20238;-62
2023/06/25 10:10:21;;;;;;;5.22;4.32;;;;;;;26.89;35.99;100485.84;5131408;27;20876;-63
2023/06/25 10:12:51;;;;;;;5.70;4.38;;;;;;;26.58;36.44;100489.84;5130196;27;20265;-64
2023/06/25 10:15:30;;;;;;;5.85;4.32;;;;;;;26.22;37.08;100491.47;5135542;27;20199;-63
2023/06/25 10:17:59;;;;;;;5.30;4.40;;;;;;;26.51;37.20;100488.56;5129605;27;20195;-63
2023/06/25 10:20:30;;;;;;;5.82;3.80;;;;;;;27.88;34.43;100485.53;5130007;27;20591;-64
2023/06/25 10:23:09;;;;;;;4.85;3.72;;;;;;;29.82;30.54;100481.38;5135079;27;20208;-63
2023/06/25 10:25:40;;;;;;;4.70;3.88;;;;;;;31.56;27.47;100473.03;5134882;27;20210;-63
2023/06/25 10:28:13;;;;;;;7.97;4.18;;;;;;;33.04;25.91;100479.28;5130542;27;20231;-65
2023/06/25 10:30:46;;;;;;;4.03;3.63;;;;;;;34.54;23.64;100471.97;5132797;27;20199;-62
2023/06/25 10:33:15;;;;;;;5.55;3.70;;;;;;;34.92;22.66;100467.03;5134054;27;20278;-63
2023/06/25 10:35:44;;;;;;;3.60;3.30;;;;;;;33.42;23.62;100477.28;5136829;27;20226;-64
2023/06/25 10:38:12;;;;;;;4.10;3.30;;;;;;;32.97;24.85;100478.22;5132790;27;20617;-63
2023/06/25 10:40:41;;;;;;;3.30;3.00;;;;;;;33.60;24.01;100464.75;5123467;27;20206;-63
2023/06/25 10:43:10;;;;;;;3.90;3.47;;;;;;;34.12;23.47;100470.09;5132911;27;20195;-64
2023/06/25 10:45:39;;;;;;;3.35;3.05;;;;;;;35.03;21.57;100465.91;5133058;27;20210;-63
2023/06/25 10:48:08;;;;;;;3.72;3.42;;;;;;;35.75;20.58;100460.66;5128879;27;20211;-62
2023/06/25 10:50:37;;;;;;;3.83;3.28;;;;;;;36.46;20.46;100462.44;5129460;27;20290;-63
2023/06/25 10:53:10;;;;;;;4.00;2.70;;;;;;;37.05;18.89;100461.94;5128507;27;20615;-63
2023/06/25 10:55:38;;;;;;;2.88;2.67;;;;;;;36.94;18.62;100455.13;5134607;27;20199;-62
2023/06/25 10:58:06;;;;;;;3.90;3.10;;;;;;;36.10;19.58;100455.91;5122025;27;20323;-63
2023/06/25 11:00:34;;;;;;;3.17;2.88;;;;;;;34.48;20.99;100464.53;5130711;27;20196;-60
2023/06/25 11:03:03;;;;;;;10.35;5.53;;;;;;;33.26;22.11;100467.31;5131623;27;20267;-63
2023/06/25 11:05:36;;;;;;;31.13;13.43;;;;;;;31.72;24.72;100459.94;5132621;27;20201;-63
2023/06/25 11:08:07;;;;;;;41.15;15.95;;;;;;;30.32;27.00;100469.06;5130235;27;20199;-62
2023/06/25 11:10:37;;;;;;;13.32;7.38;;;;;;;29.33;28.61;100470.41;5120665;27;20203;-60
2023/06/25 11:13:05;;;;;;;15.82;8.07;;;;;;;28.57;29.32;100469.56;5129729;27;20210;-64
2023/06/25 11:15:34;;;;;;;12.38;6.40;;;;;;;27.96;30.59;100460.25;5125588;27;20210;-62
2023/06/25 11:18:04;;;;;;;16.17;7.50;;;;;;;27.53;31.92;100459.06;5130988;27;20290;-62
2023/06/25 11:20:33;;;;;;;14.27;7.07;;;;;;;27.14;32.81;100463.75;5126592;27;20203;-62
2023/06/25 11:23:02;;;;;;;7.00;4.72;;;;;;;26.87;33.16;100463.94;5132918;27;20202;-64
2023/06/25 11:25:30;;;;;;;8.20;4.72;;;;;;;26.76;33.39;100461.22;5121565;27;20570;-66
2023/06/25 11:28:03;;;;;;;6.68;4.47;;;;;;;26.86;33.62;100454.31;5120140;27;20259;-63
2023/06/25 11:30:31;;;;;;;7.13;4.78;;;;;;;27.05;33.37;100450.31;5121842;27;20195;-63
2023/06/25 11:33:12;;;;;;;6.30;5.15;;;;;;;27.52;33.91;100448.59;5131425;27;20246;-64